createdAt,value
2022-11-14T05:16:43.155Z,101387.56
2022-11-14T05:18:06.330Z,101389.44
2022-11-14T05:19:27.789Z,101392.08
2022-11-14T05:20:49.839Z,101395.46
2022-11-14T05:22:12.593Z,101398.06
2022-11-14T05:23:35.549Z,101383.88
2022-11-14T05:24:57.411Z,101396.77
2022-11-14T05:26:20.376Z,101401.84
2022-11-14T05:27:42.544Z,101395.55
2022-11-14T05:29:04.851Z,101392.92
2022-11-14T05:30:26.427Z,101391.81
2022-11-14T05:31:47.553Z,101398.81
2022-11-14T05:33:09.355Z,101391.15
2022-11-14T05:34:31.457Z,101398.81
2022-11-14T05:35:53.177Z,101396.19
2022-11-14T05:37:15.055Z,101397.83
2022-11-14T05:38:37.438Z,101398.11
2022-11-14T05:39:59.432Z,101396.14
2022-11-14T05:41:34.899Z,101394.33
2022-11-14T05:42:57.413Z,101395.55
2022-11-14T05:44:19.195Z,101395.67
2022-11-14T05:45:42.128Z,101391.11
2022-11-14T05:47:03.808Z,101397.79
2022-11-14T05:48:24.860Z,101394.05
2022-11-14T05:49:46.958Z,101401.05
2022-11-14T05:51:10.934Z,101403.02
2022-11-14T05:52:32.919Z,101400.50
2022-11-14T05:53:55.013Z,101403.37
2022-11-14T05:55:20.524Z,101402.89
2022-11-14T05:56:40.398Z,101400.29
2022-11-14T05:58:02.568Z,101403.11
2022-11-14T05:59:24.339Z,101406.48
2022-11-14T06:00:52.023Z,101401.58
2022-11-14T06:02:08.474Z,101400.58
2022-11-14T06:03:32.322Z,101405.09
2022-11-14T06:04:54.746Z,101408.91
2022-11-14T06:06:18.275Z,101409.09
2022-11-14T06:07:40.242Z,101408.36
2022-11-14T06:09:02.372Z,101407.83
2022-11-14T06:10:23.934Z,101411.73
2022-11-14T06:11:46.152Z,101409.59
2022-11-14T06:13:08.129Z,101415.12
2022-11-14T06:14:29.849Z,101409.13
2022-11-14T06:15:54.202Z,101408.05
2022-11-14T06:17:16.578Z,101407.59
2022-11-14T06:18:41.323Z,101416.16
2022-11-14T06:20:03.638Z,101419.11
2022-11-14T06:21:25.945Z,101410.72
2022-11-14T06:22:47.935Z,101421.34
2022-11-14T06:24:08.778Z,101415.05
2022-11-14T06:25:30.243Z,101420.87
2022-11-14T06:26:52.909Z,101419.32
2022-11-14T06:28:14.537Z,101412.27
2022-11-14T06:29:35.825Z,101412.65
2022-11-14T06:31:00.722Z,101420.05
2022-11-14T06:32:22.811Z,101416.09
2022-11-14T06:33:44.607Z,101415.44
2022-11-14T06:35:08.603Z,101407.73
2022-11-14T06:36:30.606Z,101413.94
2022-11-14T06:37:53.608Z,101424.12
2022-11-14T06:39:15.500Z,101409.20
2022-11-14T06:40:36.247Z,101413.45
2022-11-14T06:42:00.937Z,101412.29
2022-11-14T06:43:22.628Z,101405.31
2022-11-14T06:44:44.202Z,101412.14
2022-11-14T06:46:09.204Z,101412.45
2022-11-14T06:47:30.027Z,101419.40
2022-11-14T06:48:53.833Z,101425.55
2022-11-14T06:50:15.616Z,101417.45
2022-11-14T06:51:37.495Z,101425.69
2022-11-14T06:52:58.773Z,101425.17
2022-11-14T06:54:20.122Z,101427.67
2022-11-14T06:55:41.812Z,101435.83
2022-11-14T06:57:03.804Z,101433.17
2022-11-14T06:58:29.518Z,101433.86
2022-11-14T06:59:53.314Z,101432.90
2022-11-14T07:01:18.136Z,101430.13
2022-11-14T07:02:40.882Z,101438.06
2022-11-14T07:04:05.924Z,101442.62
2022-11-14T07:05:27.863Z,101442.95
2022-11-14T07:06:49.412Z,101445.22
2022-11-14T07:08:11.365Z,101446.86
2022-11-14T07:09:32.738Z,101456.38
2022-11-14T07:10:54.068Z,101453.14
2022-11-14T07:12:17.120Z,101448.66
2022-11-14T07:13:38.888Z,101455.62
2022-11-14T07:15:00.568Z,101458.20
2022-11-14T07:16:24.336Z,101464.59
2022-11-14T07:17:46.434Z,101457.05
2022-11-14T07:19:11.554Z,101460.66
2022-11-14T07:20:33.240Z,101461.34
2022-11-14T07:21:55.952Z,101463.28
2022-11-14T07:23:22.850Z,101458.45
2022-11-14T07:24:43.947Z,101459.69
2022-11-14T07:26:12.581Z,101461.77
2022-11-14T07:27:34.586Z,101457.04
2022-11-14T07:29:01.845Z,101457.52
2022-11-14T07:30:20.242Z,101459.50
2022-11-14T07:31:42.432Z,101474.00
2022-11-14T07:33:04.981Z,101484.36
2022-11-14T07:34:26.419Z,101488.04
2022-11-14T07:35:49.780Z,101499.03
2022-11-14T07:37:11.874Z,101507.70
2022-11-14T07:38:34.706Z,101506.99
2022-11-14T07:39:56.277Z,101513.92
2022-11-14T07:41:21.228Z,101518.55
2022-11-14T07:42:44.118Z,101527.84
2022-11-14T07:44:05.890Z,101534.20
2022-11-14T07:45:27.797Z,101534.55
2022-11-14T07:46:50.001Z,101526.13
2022-11-14T07:48:11.888Z,101540.92
2022-11-14T07:49:35.237Z,101532.30
2022-11-14T07:51:04.022Z,101533.20
2022-11-14T07:52:26.106Z,101531.77
2022-11-14T07:53:52.809Z,101536.64
2022-11-14T07:55:15.925Z,101524.75
2022-11-14T07:56:37.526Z,101517.41
2022-11-14T07:58:00.131Z,101516.83
2022-11-14T07:59:21.603Z,101517.64
2022-11-14T08:00:43.777Z,101520.00
2022-11-14T08:02:05.703Z,101523.23
2022-11-14T08:03:27.485Z,101514.48
2022-11-14T08:04:49.258Z,101516.89
2022-11-14T08:06:12.203Z,101515.27
2022-11-14T08:07:33.146Z,101518.82
2022-11-14T08:08:55.141Z,101516.82
2022-11-14T08:10:18.222Z,101511.64
2022-11-14T08:11:50.042Z,101518.28
2022-11-14T08:14:38.364Z,101510.16
2022-11-14T08:16:05.692Z,101510.61
2022-11-14T08:17:30.068Z,101512.39
2022-11-14T08:18:52.694Z,101503.62
2022-11-14T08:20:14.365Z,101500.20
2022-11-14T08:21:37.207Z,101504.56
2022-11-14T08:23:04.085Z,101512.30
2022-11-14T08:24:26.383Z,101510.13
2022-11-14T08:25:47.975Z,101512.45
2022-11-14T08:27:08.724Z,101500.09
2022-11-14T08:28:31.393Z,101496.09
2022-11-14T08:29:53.742Z,101495.06
2022-11-14T08:31:15.536Z,101490.44
2022-11-14T08:32:37.427Z,101476.52
2022-11-14T08:33:59.432Z,101476.18
2022-11-14T08:35:21.408Z,101467.36
2022-11-14T08:36:44.448Z,101457.77
2022-11-14T08:38:06.434Z,101466.46
2022-11-14T08:39:27.386Z,101457.83
2022-11-14T08:40:49.171Z,101457.41
2022-11-14T08:42:10.932Z,101451.28
2022-11-14T08:43:34.226Z,101444.25
2022-11-14T08:44:55.844Z,101448.78
2022-11-14T08:46:16.818Z,101444.42
2022-11-14T08:47:38.609Z,101447.59
2022-11-14T08:49:00.387Z,101442.22
2022-11-14T08:50:21.853Z,101439.42
2022-11-14T08:51:45.109Z,101436.32
2022-11-14T08:53:08.249Z,101439.04
2022-11-14T08:54:30.245Z,101438.38
2022-11-14T08:55:51.913Z,101435.41
2022-11-14T08:57:16.473Z,101432.56
2022-11-14T08:58:38.404Z,101429.69
2022-11-14T09:00:04.240Z,101426.56
2022-11-14T09:01:26.994Z,101422.26
2022-11-14T09:02:49.123Z,101426.45
2022-11-14T09:04:11.009Z,101422.07
2022-11-14T09:05:33.389Z,101425.09
2022-11-14T09:06:55.923Z,101430.42
2022-11-14T09:08:19.048Z,101423.28
2022-11-14T09:09:42.177Z,101429.56
2022-11-14T09:11:06.993Z,101424.59
2022-11-14T09:12:29.716Z,101420.03
2022-11-14T09:13:53.424Z,101426.48
2022-11-14T09:15:16.056Z,101420.69
2022-11-14T09:16:37.310Z,101422.78
2022-11-14T09:17:59.466Z,101418.91
2022-11-14T09:19:21.201Z,101414.88
2022-11-14T09:20:43.021Z,101419.59
2022-11-14T09:22:04.723Z,101407.47
2022-11-14T09:23:27.050Z,101407.30
2022-11-14T09:24:51.912Z,101405.34
2022-11-14T09:26:14.126Z,101404.22
2022-11-14T09:27:36.015Z,101399.20
2022-11-14T09:28:57.708Z,101398.99
2022-11-14T09:30:19.686Z,101403.27
2022-11-14T09:31:41.377Z,101396.16
2022-11-14T09:33:10.081Z,101396.32
2022-11-14T09:34:31.446Z,101397.78
2022-11-14T09:36:03.322Z,101394.34
2022-11-14T09:37:25.221Z,101387.30
2022-11-14T09:38:47.738Z,101395.63
2022-11-14T09:40:10.774Z,101391.16
2022-11-14T09:41:39.598Z,101394.68
2022-11-14T09:43:03.403Z,101398.03
2022-11-14T09:44:33.138Z,101395.36
2022-11-14T09:45:55.590Z,101401.29
2022-11-14T09:47:21.021Z,101396.93
2022-11-14T09:48:43.097Z,101400.70
2022-11-14T09:50:10.133Z,101394.43
2022-11-14T09:51:33.024Z,101389.87
2022-11-14T09:52:58.694Z,101389.33
2022-11-14T09:54:25.154Z,101396.97
2022-11-14T09:55:48.068Z,101392.95
2022-11-14T09:57:17.616Z,101385.97
2022-11-14T09:58:41.173Z,101378.50
2022-11-14T10:00:02.839Z,101379.47
2022-11-14T10:01:35.155Z,101388.25
2022-11-14T10:03:14.294Z,101386.77
2022-11-14T10:04:58.343Z,101384.19
2022-11-14T10:06:30.761Z,101375.25
2022-11-14T10:08:04.608Z,101382.05
2022-11-14T10:10:54.749Z,101379.39
2022-11-14T10:12:23.905Z,101378.98
2022-11-14T10:13:53.844Z,101377.34
2022-11-14T10:15:23.353Z,101370.77
2022-11-14T10:16:46.593Z,101366.58
2022-11-14T10:18:10.372Z,101368.34
2022-11-14T10:19:44.673Z,101367.62
2022-11-14T10:21:10.658Z,101362.30
2022-11-14T10:22:56.175Z,101368.81
2022-11-14T10:24:27.531Z,101367.35
2022-11-14T10:25:54.755Z,101372.19
2022-11-14T10:27:27.086Z,101362.53
2022-11-14T10:29:00.253Z,101360.67
2022-11-14T10:30:31.670Z,101360.80
2022-11-14T10:31:58.901Z,101361.53
2022-11-14T10:33:23.557Z,101366.07
2022-11-14T10:34:50.147Z,101355.23
2022-11-14T10:36:22.490Z,101357.55
2022-11-14T10:38:01.194Z,101352.22
2022-11-14T10:39:23.818Z,101355.86
2022-11-14T10:40:47.375Z,101345.41
2022-11-14T10:42:29.108Z,101354.14
2022-11-14T10:43:51.482Z,101348.80
2022-11-14T10:45:20.808Z,101354.06
2022-11-14T10:46:43.478Z,101354.33
2022-11-14T10:48:08.494Z,101347.12
2022-11-14T10:49:31.798Z,101351.11
2022-11-14T10:50:54.742Z,101345.70
2022-11-14T10:52:17.466Z,101340.56
2022-11-14T10:53:41.132Z,101334.73
2022-11-14T10:55:11.684Z,101334.38
2022-11-14T10:56:33.879Z,101336.64
2022-11-14T10:57:58.699Z,101335.54
2022-11-14T10:59:21.824Z,101337.18
2022-11-14T11:00:43.780Z,101335.88
2022-11-14T11:02:05.503Z,101337.23
2022-11-14T11:03:44.380Z,101333.37
2022-11-14T11:05:09.431Z,101338.09
2022-11-14T11:06:31.337Z,101344.27
2022-11-14T11:08:36.168Z,101327.53
2022-11-14T11:09:56.359Z,101343.72
2022-11-14T11:11:33.289Z,101337.23
2022-11-14T11:12:54.984Z,101332.73
2022-11-14T11:14:17.755Z,101333.48
2022-11-14T11:15:43.343Z,101326.17
2022-11-14T11:17:15.103Z,101331.77
2022-11-14T11:18:36.630Z,101337.52
2022-11-14T11:20:06.439Z,101333.71
2022-11-14T11:21:24.713Z,101327.53
2022-11-14T11:22:46.295Z,101326.72
2022-11-14T11:24:09.822Z,101331.33
2022-11-14T11:25:32.326Z,101329.69
2022-11-14T11:26:56.211Z,101335.56
2022-11-14T11:28:20.192Z,101334.15
2022-11-14T11:29:42.476Z,101343.72
2022-11-14T11:31:10.376Z,101329.22
2022-11-14T11:32:33.690Z,101331.05
2022-11-14T11:33:55.980Z,101334.41
2022-11-14T11:35:18.709Z,101332.45
2022-11-14T11:36:42.670Z,101323.48
2022-11-14T11:38:06.843Z,101328.55
2022-11-14T11:39:30.810Z,101324.80
2022-11-14T11:40:53.460Z,101329.09
2022-11-14T11:42:22.034Z,101333.31
2022-11-14T11:43:44.551Z,101330.06
2022-11-14T11:45:08.076Z,101336.39
2022-11-14T11:46:37.099Z,101341.33
2022-11-14T11:48:00.877Z,101331.14
2022-11-14T11:49:31.530Z,101332.85
2022-11-14T11:50:52.684Z,101320.73
2022-11-14T11:52:32.751Z,101325.98
2022-11-14T11:54:07.559Z,101329.66
2022-11-14T11:55:38.149Z,101331.38
2022-11-14T11:57:01.921Z,101327.08
2022-11-14T11:58:24.437Z,101332.73
2022-11-14T11:59:48.089Z,101332.09
2022-11-14T12:01:14.482Z,101321.31
2022-11-14T12:02:38.074Z,101323.48
2022-11-14T12:04:02.520Z,101323.33
2022-11-14T12:05:26.505Z,101324.27
2022-11-14T12:06:51.246Z,101327.70
2022-11-14T12:08:21.294Z,101316.36
2022-11-14T12:11:04.719Z,101323.25
2022-11-14T12:12:32.072Z,101316.44
2022-11-14T12:14:04.990Z,101320.14
2022-11-14T12:15:32.421Z,101317.94
2022-11-14T12:16:57.340Z,101314.97
2022-11-14T12:18:20.900Z,101311.91
2022-11-14T12:19:43.716Z,101322.02
2022-11-14T12:21:17.419Z,101317.01
2022-11-14T12:22:48.487Z,101314.20
2022-11-14T12:24:13.520Z,101323.81
2022-11-14T12:25:46.781Z,101313.78
2022-11-14T12:27:25.417Z,101312.91
2022-11-14T12:29:06.593Z,101313.19
2022-11-14T12:30:29.430Z,101304.42
2022-11-14T12:31:56.334Z,101320.00
2022-11-14T12:33:22.887Z,101317.16
2022-11-14T12:34:46.598Z,101313.48
2022-11-14T12:36:11.909Z,101313.25
2022-11-14T12:37:37.563Z,101314.27
2022-11-14T12:39:00.637Z,101318.35
2022-11-14T12:40:26.250Z,101311.84
2022-11-14T12:41:49.486Z,101311.95
2022-11-14T12:43:13.046Z,101306.22
2022-11-14T12:44:39.681Z,101308.02
2022-11-14T12:46:03.839Z,101304.57
2022-11-14T12:47:27.704Z,101305.70
2022-11-14T12:48:49.576Z,101307.49
2022-11-14T12:50:22.448Z,101310.53
2022-11-14T12:51:50.079Z,101304.20
2022-11-14T12:53:31.473Z,101295.97
2022-11-14T12:54:53.803Z,101304.84
2022-11-14T12:56:21.138Z,101306.07
2022-11-14T12:57:49.905Z,101302.70
2022-11-14T12:59:23.590Z,101298.17
2022-11-14T13:00:48.610Z,101297.64
2022-11-14T13:02:22.387Z,101300.76
2022-11-14T13:03:48.273Z,101300.61
2022-11-14T13:05:14.545Z,101300.98
2022-11-14T13:06:44.136Z,101300.38
2022-11-14T13:08:09.486Z,101292.48
2022-11-14T13:09:49.874Z,101290.19
2022-11-14T13:11:31.920Z,101292.48
2022-11-14T13:13:22.837Z,101297.77
2022-11-14T13:15:11.574Z,101289.73
2022-11-14T13:16:53.308Z,101292.75
2022-11-14T13:18:44.628Z,101289.30
2022-11-14T13:20:45.176Z,101290.81
2022-11-14T13:22:16.282Z,101286.83
2022-11-14T13:23:45.987Z,101288.44
2022-11-14T13:25:18.517Z,101285.03
2022-11-14T13:26:43.647Z,101289.48
2022-11-14T13:28:24.569Z,101284.31
2022-11-14T13:29:42.041Z,101286.75
2022-11-14T13:31:17.194Z,101292.06
